Terminal Aerodrome Forecast
Issued by NWS

Home | Current Version | Previous Version | Text Only | Print | Product List | Glossary On
Versions: 1 2 3 4 5 6 7 8 9 10 11 12 13
000
FTUS45 KREV 260523
TAFMMH
TAF
KMMH 260523Z 2606/2706 29006KT P6SM FEW050 SCT120 BKN180
     FM260800 VRB04KT P6SM SCT120 SCT180
     FM261500 13006KT P6SM FEW060 SCT140
     FM262000 26010G16KT P6SM VCSH BKN060 BKN140
     FM270200 29009G16KT P6SM SCT060 SCT140=

USA.gov is the U.S. government's official web portal to all federal, state and local government web resources and services.